Widener, Arkansas
Current Conditions -  °F | °C
As of 7:53 AM on Wednesday 26 Nov 2014 (Local Time) from KAWM Reporting Station
Clear Clear  
Wind Chill: 27°   Ceiling: Unl
Heat Index: 34°   Visibility: 10mi
Dew Point: 31°   Wind: 8mph
Humidity: 89%   Direction: 160°SSE
Pressure: 30.12"   Gusts: NA
Location:  35.02°N, 90.68°W
Report Text: KAWM 261353Z AUTO 16007KT 10SM CLR 01/M01 A3012 RMK AO2 SLP203 T00111006
Loading
Personal Weather Stations






























Interactive Weather Map New forecast layout! Learn more

10-Day Weather Forecast

Advertisements
Track Severe Weather on mobile